createdAt,value
2022-08-23T00:01:28.417Z,57.60
2022-08-23T00:04:01.840Z,57.05
2022-08-23T00:06:29.973Z,57.21
2022-08-23T00:08:57.428Z,56.94
2022-08-23T00:11:30.254Z,57.23
2022-08-23T00:14:01.099Z,57.86
2022-08-23T00:16:29.128Z,58.00
2022-08-23T00:18:56.595Z,56.06
2022-08-23T00:21:24.042Z,56.19
2022-08-23T00:23:51.462Z,55.47
2022-08-23T00:26:20.690Z,56.23
2022-08-23T00:28:49.784Z,55.98
2022-08-23T00:31:18.334Z,55.30
2022-08-23T00:33:45.814Z,56.08
2022-08-23T00:36:13.641Z,55.73
2022-08-23T00:38:42.096Z,55.42
2022-08-23T00:41:09.637Z,55.16
2022-08-23T00:43:59.140Z,55.44
2022-08-23T00:47:00.449Z,55.02
2022-08-23T00:49:30.048Z,55.55
2022-08-23T00:52:07.714Z,55.06
2022-08-23T00:54:37.705Z,54.38
2022-08-23T00:57:09.095Z,53.27
2022-08-23T00:59:36.702Z,54.07
2022-08-23T01:02:07.491Z,54.32
2022-08-23T01:04:39.861Z,53.72
2022-08-23T01:07:17.565Z,53.04
2022-08-23T01:09:46.893Z,54.23
2022-08-23T01:12:32.275Z,54.32
2022-08-23T01:15:32.019Z,53.47
2022-08-23T01:18:09.360Z,55.73
2022-08-23T01:20:51.900Z,56.07
2022-08-23T01:23:26.213Z,54.21
2022-08-23T01:25:54.231Z,53.34
2022-08-23T01:28:21.666Z,54.70
2022-08-23T01:30:49.755Z,54.75
2022-08-23T01:33:18.349Z,53.20
2022-08-23T01:35:53.511Z,53.52
2022-08-23T01:38:22.432Z,52.41
2022-08-23T01:40:50.734Z,54.19
2022-08-23T01:43:21.483Z,53.60
2022-08-23T01:45:52.099Z,54.55
2022-08-23T01:48:22.505Z,54.06
2022-08-23T01:50:50.905Z,54.82
2022-08-23T01:53:19.425Z,54.78
2022-08-23T01:55:50.157Z,54.55
2022-08-23T01:58:19.825Z,54.54
2022-08-23T02:00:47.314Z,53.97
2022-08-23T02:03:15.866Z,54.55
2022-08-23T02:05:43.298Z,54.36
2022-08-23T02:08:31.014Z,56.26
2022-08-23T02:11:00.490Z,56.28
2022-08-23T02:13:27.945Z,56.66
2022-08-23T02:15:58.431Z,56.73
2022-08-23T02:18:26.541Z,57.75
2022-08-23T02:20:53.897Z,57.75
2022-08-23T02:23:23.240Z,57.56
2022-08-23T02:25:51.885Z,58.81
2022-08-23T02:28:22.097Z,58.75
2022-08-23T02:30:50.514Z,59.86
2022-08-23T02:33:18.278Z,59.54
2022-08-23T02:35:45.843Z,58.96
2022-08-23T02:38:13.672Z,59.47
2022-08-23T02:40:42.478Z,59.26
2022-08-23T02:43:10.965Z,59.80
2022-08-23T02:45:39.182Z,59.73
2022-08-23T02:48:08.433Z,59.21
2022-08-23T02:50:44.182Z,59.03
2022-08-23T02:53:11.653Z,58.89
2022-08-23T02:55:39.326Z,60.80
2022-08-23T02:58:07.069Z,60.97
2022-08-23T03:00:34.584Z,61.11
2022-08-23T03:03:03.640Z,61.03
2022-08-23T03:05:31.905Z,61.57
2022-08-23T03:07:59.653Z,60.69
2022-08-23T03:10:27.350Z,60.40
2022-08-23T03:12:59.648Z,61.14
2022-08-23T03:15:27.261Z,60.82
2022-08-23T03:17:54.872Z,59.66
2022-08-23T03:20:22.526Z,60.41
2022-08-23T03:22:54.700Z,61.70
2022-08-23T03:25:24.973Z,61.60
2022-08-23T03:28:14.552Z,62.76
2022-08-23T03:30:45.008Z,62.24
2022-08-23T03:33:13.579Z,60.92
2022-08-23T03:35:42.637Z,62.01
2022-08-23T03:38:13.934Z,62.75
2022-08-23T03:40:43.279Z,61.90
2022-08-23T03:43:11.204Z,59.42
2022-08-23T03:45:38.706Z,58.95
2022-08-23T03:48:07.329Z,60.48
2022-08-23T03:50:36.149Z,59.58
2022-08-23T03:53:04.594Z,58.51
2022-08-23T03:55:33.005Z,59.10
2022-08-23T03:58:00.760Z,59.94
2022-08-23T04:00:28.467Z,60.39
2022-08-23T04:02:56.118Z,61.04
2022-08-23T04:05:25.713Z,60.87
2022-08-23T04:07:56.134Z,61.06
2022-08-23T04:10:25.876Z,59.29
2022-08-23T04:12:55.656Z,58.97
2022-08-23T04:15:24.820Z,59.71
2022-08-23T04:17:52.563Z,59.55
2022-08-23T04:20:20.285Z,60.85
2022-08-23T04:22:56.484Z,60.22
2022-08-23T04:25:34.519Z,59.71
2022-08-23T04:28:05.619Z,60.64
2022-08-23T04:30:34.694Z,60.43
2022-08-23T04:33:10.181Z,60.96
2022-08-23T04:35:41.459Z,60.69
2022-08-23T04:38:24.655Z,60.84
2022-08-23T04:41:15.048Z,59.48
2022-08-23T04:43:45.147Z,60.07
2022-08-23T04:46:15.474Z,61.14
2022-08-23T04:48:45.610Z,61.46
2022-08-23T04:51:13.501Z,61.18
2022-08-23T04:53:41.862Z,61.48
2022-08-23T04:56:32.405Z,63.20
2022-08-23T04:58:59.987Z,61.51
2022-08-23T05:01:28.329Z,59.97
2022-08-23T05:03:57.298Z,61.38
2022-08-23T05:06:27.548Z,62.38
2022-08-23T05:08:55.537Z,61.53
2022-08-23T05:11:24.039Z,61.14
2022-08-23T05:13:51.494Z,61.81
2022-08-23T05:16:20.344Z,60.81
2022-08-23T05:18:59.633Z,61.07
2022-08-23T05:21:27.256Z,61.11
2022-08-23T05:23:55.101Z,59.52
2022-08-23T05:26:25.574Z,61.69
2022-08-23T05:28:53.017Z,60.35
2022-08-23T05:31:27.444Z,60.34
2022-08-23T05:33:59.037Z,61.90
2022-08-23T05:36:48.135Z,61.93
2022-08-23T05:39:33.688Z,62.88
2022-08-23T05:42:13.473Z,62.61
2022-08-23T05:44:43.335Z,64.76
2022-08-23T05:47:15.624Z,63.46
2022-08-23T05:50:09.670Z,63.45
2022-08-23T05:52:38.861Z,64.11
2022-08-23T05:55:07.537Z,65.60
2022-08-23T05:57:41.230Z,64.88
2022-08-23T06:00:15.429Z,66.58
2022-08-23T06:02:59.234Z,67.94
2022-08-23T06:05:26.700Z,68.40
2022-08-23T06:07:54.359Z,68.27
2022-08-23T06:10:23.956Z,64.32
2022-08-23T06:13:03.949Z,59.87
2022-08-23T06:15:32.523Z,59.26
2022-08-23T06:18:00.942Z,58.34
2022-08-23T06:20:28.978Z,58.69
2022-08-23T06:23:06.738Z,65.15
2022-08-23T06:25:39.784Z,64.33
2022-08-23T06:28:17.692Z,67.24
2022-08-23T06:30:47.635Z,65.89
2022-08-23T06:33:27.299Z,66.04
2022-08-23T06:36:13.279Z,64.04
2022-08-23T06:39:17.715Z,66.41
2022-08-23T06:42:38.344Z,64.68
2022-08-23T06:45:05.232Z,64.41
2022-08-23T06:47:40.376Z,60.80
2022-08-23T06:50:09.350Z,61.67
2022-08-23T06:52:55.337Z,61.27
2022-08-23T06:55:37.285Z,63.92
2022-08-23T06:58:16.587Z,65.21
2022-08-23T07:01:42.020Z,61.60
2022-08-23T07:04:11.909Z,61.35
2022-08-23T07:06:59.296Z,62.43
2022-08-23T07:09:27.124Z,61.34
2022-08-23T07:11:55.263Z,60.67
2022-08-23T07:14:23.871Z,62.89
2022-08-23T07:16:56.199Z,60.22
2022-08-23T07:19:28.973Z,59.52
2022-08-23T07:21:58.405Z,59.00
2022-08-23T07:24:30.791Z,58.19
2022-08-23T07:27:06.299Z,59.59
2022-08-23T07:29:36.974Z,58.72
2022-08-23T07:32:06.105Z,58.05
2022-08-23T07:34:34.577Z,57.88
2022-08-23T07:37:04.344Z,58.48
2022-08-23T07:39:38.838Z,57.09
2022-08-23T07:42:22.963Z,56.95
2022-08-23T07:44:54.563Z,56.56
2022-08-23T07:47:24.659Z,57.55
2022-08-23T07:49:55.562Z,57.20
2022-08-23T07:52:23.587Z,55.79
2022-08-23T07:54:51.305Z,54.92
2022-08-23T07:57:30.186Z,55.07
2022-08-23T08:00:10.988Z,54.98
2022-08-23T08:02:49.465Z,54.53
2022-08-23T08:05:25.415Z,53.50
2022-08-23T08:07:54.557Z,52.68
2022-08-23T08:10:22.509Z,54.05
2022-08-23T08:12:50.410Z,54.21
2022-08-23T08:15:20.371Z,56.01
2022-08-23T08:17:54.532Z,55.00
2022-08-23T08:20:22.609Z,54.65
2022-08-23T08:23:08.687Z,53.52
2022-08-23T08:26:11.694Z,52.40
2022-08-23T08:28:47.254Z,52.01
2022-08-23T08:31:15.430Z,51.69
2022-08-23T08:33:43.233Z,51.60
2022-08-23T08:36:32.504Z,52.51
2022-08-23T08:39:02.904Z,52.45
2022-08-23T08:41:44.504Z,52.84
2022-08-23T08:44:24.497Z,51.56
2022-08-23T08:46:57.254Z,52.56
2022-08-23T08:49:40.399Z,51.60
2022-08-23T08:52:15.713Z,50.90
2022-08-23T08:54:48.219Z,51.69
2022-08-23T08:57:22.689Z,49.99
2022-08-23T09:00:05.511Z,50.18
2022-08-23T09:02:37.708Z,49.55
2022-08-23T09:05:18.303Z,49.20
2022-08-23T09:08:34.306Z,49.93
2022-08-23T09:11:26.896Z,48.53
2022-08-23T09:14:04.357Z,46.82
2022-08-23T09:16:57.736Z,48.03
2022-08-23T09:19:25.458Z,48.90
2022-08-23T09:21:55.993Z,50.22
2022-08-23T09:24:24.950Z,48.96
2022-08-23T09:27:04.404Z,46.38
2022-08-23T09:29:34.635Z,47.07
2022-08-23T09:32:06.702Z,47.83
2022-08-23T09:34:36.601Z,47.38
2022-08-23T09:37:20.691Z,48.32
2022-08-23T09:39:50.614Z,46.85
2022-08-23T09:42:37.373Z,47.84
2022-08-23T09:45:35.314Z,47.77
2022-08-23T09:48:05.646Z,46.32
2022-08-23T09:51:19.148Z,45.20
2022-08-23T09:53:50.588Z,45.56
2022-08-23T09:56:26.223Z,43.54
2022-08-23T09:58:54.684Z,44.12
2022-08-23T10:01:39.333Z,45.14
2022-08-23T10:04:14.863Z,45.82
2022-08-23T10:06:46.184Z,44.90
2022-08-23T10:09:30.317Z,43.49
2022-08-23T10:12:02.862Z,42.67
2022-08-23T10:14:33.856Z,43.04
2022-08-23T10:17:36.777Z,44.74
2022-08-23T10:20:32.858Z,44.92
2022-08-23T10:23:09.899Z,40.80
2022-08-23T10:25:53.325Z,40.54
2022-08-23T10:29:21.586Z,41.63
2022-08-23T10:32:04.468Z,40.83
2022-08-23T10:35:04.596Z,40.42
2022-08-23T10:37:52.990Z,41.43
2022-08-23T10:40:43.828Z,42.00
2022-08-23T10:43:26.047Z,42.57
2022-08-23T10:46:00.430Z,40.75
2022-08-23T10:48:41.113Z,40.23
2022-08-23T10:51:22.569Z,37.48
2022-08-23T10:54:00.818Z,39.24
2022-08-23T10:56:29.262Z,36.90
2022-08-23T10:59:09.419Z,37.38
2022-08-23T11:01:45.823Z,38.51
2022-08-23T11:04:42.204Z,39.92
2022-08-23T11:07:34.295Z,37.23
2022-08-23T11:10:56.363Z,39.88
2022-08-23T11:13:32.181Z,38.54
2022-08-23T11:16:25.453Z,39.01
2022-08-23T11:18:53.284Z,39.33
2022-08-23T11:21:33.434Z,39.89
2022-08-23T11:24:06.428Z,40.66
2022-08-23T11:26:40.023Z,41.08
2022-08-23T11:29:09.404Z,41.37
2022-08-23T11:31:58.716Z,41.89
2022-08-23T11:34:48.397Z,41.09
2022-08-23T11:37:19.111Z,42.56
2022-08-23T11:39:58.464Z,42.12
2022-08-23T11:42:42.708Z,40.13
2022-08-23T11:45:20.996Z,41.31
2022-08-23T11:48:03.908Z,42.70
2022-08-23T11:50:58.159Z,42.26
2022-08-23T11:53:39.095Z,42.13
2022-08-23T11:56:25.209Z,40.28
2022-08-23T11:59:34.877Z,39.96
2022-08-23T12:02:47.728Z,39.09
2022-08-23T12:05:17.305Z,39.60
2022-08-23T12:08:00.061Z,38.64
2022-08-23T12:10:43.131Z,39.60
2022-08-23T12:13:19.917Z,39.28
2022-08-23T12:16:10.074Z,39.99
2022-08-23T12:18:53.734Z,42.41
2022-08-23T12:21:47.331Z,40.43
2022-08-23T12:24:14.884Z,38.09
2022-08-23T12:26:42.770Z,38.40
2022-08-23T12:29:39.541Z,38.90
2022-08-23T12:32:41.811Z,39.53
2022-08-23T12:35:44.947Z,38.36
2022-08-23T12:38:21.008Z,41.38
2022-08-23T12:40:54.433Z,40.90
2022-08-23T12:43:26.929Z,40.16
2022-08-23T12:46:01.811Z,39.67
2022-08-23T12:48:32.886Z,40.00
2022-08-23T12:51:06.579Z,39.35
2022-08-23T12:53:45.087Z,39.67
2022-08-23T12:56:32.093Z,38.42
2022-08-23T12:59:05.018Z,39.42
2022-08-23T13:01:37.396Z,39.77
2022-08-23T13:04:15.787Z,39.15
2022-08-23T13:06:47.317Z,39.65
2022-08-23T13:09:23.072Z,39.91
2022-08-23T13:11:51.120Z,41.34
2022-08-23T13:14:26.926Z,38.90
2022-08-23T13:17:18.848Z,37.87
2022-08-23T13:19:48.971Z,39.60
2022-08-23T13:22:19.581Z,38.69
2022-08-23T13:25:29.192Z,37.96
2022-08-23T13:28:21.905Z,36.77
2022-08-23T13:31:08.654Z,36.22
2022-08-23T13:33:37.451Z,36.41
2022-08-23T13:36:21.491Z,37.24
2022-08-23T13:38:50.675Z,38.00
2022-08-23T13:41:38.721Z,37.57
2022-08-23T13:44:09.269Z,37.44
2022-08-23T13:46:44.880Z,36.75
2022-08-23T13:49:18.171Z,37.27
2022-08-23T13:52:26.397Z,37.74
2022-08-23T13:54:50.887Z,37.54
2022-08-23T13:57:21.520Z,38.28
2022-08-23T13:59:58.893Z,37.55
2022-08-23T14:02:26.726Z,37.71
2022-08-23T14:04:54.286Z,38.10
2022-08-23T14:07:21.749Z,37.06
2022-08-23T14:09:53.168Z,37.74
2022-08-23T14:12:27.512Z,36.98
2022-08-23T14:14:56.999Z,37.68
2022-08-23T14:17:24.815Z,37.06
2022-08-23T14:20:32.255Z,37.26
2022-08-23T14:22:40.517Z,36.48
2022-08-23T14:25:09.420Z,36.37
2022-08-23T14:27:40.510Z,36.09
2022-08-23T14:30:11.541Z,38.20
2022-08-23T14:32:40.786Z,39.85
2022-08-23T14:35:08.748Z,37.85
2022-08-23T14:40:26.147Z,37.06
2022-08-23T14:42:53.611Z,38.50
2022-08-23T14:45:21.204Z,37.77
2022-08-23T14:47:48.699Z,36.42
2022-08-23T14:50:16.186Z,36.63
2022-08-23T14:52:46.354Z,37.70
2022-08-23T14:55:15.125Z,36.12
2022-08-23T14:57:42.715Z,36.45
2022-08-23T15:00:14.602Z,36.86
2022-08-23T15:02:47.019Z,38.31
2022-08-23T15:05:16.424Z,37.02
2022-08-23T15:07:44.143Z,37.14
2022-08-23T15:10:49.927Z,38.03
2022-08-23T15:13:15.623Z,37.24
2022-08-23T15:15:49.121Z,36.88
2022-08-23T15:18:17.030Z,36.99
2022-08-23T15:20:45.622Z,37.62
2022-08-23T15:23:13.449Z,36.65
2022-08-23T15:25:43.027Z,36.18
2022-08-23T15:28:14.371Z,36.46
2022-08-23T15:30:42.930Z,36.77
2022-08-23T15:33:10.861Z,37.03
2022-08-23T15:35:46.117Z,36.61
2022-08-23T15:38:15.873Z,37.50
2022-08-23T15:40:43.775Z,36.93
2022-08-23T15:43:11.693Z,37.01
2022-08-23T15:45:40.075Z,37.22
2022-08-23T15:48:36.345Z,38.17
2022-08-23T15:51:05.980Z,37.13
2022-08-23T15:53:33.794Z,38.00
2022-08-23T15:56:05.623Z,37.29
2022-08-23T15:58:33.647Z,36.91
2022-08-23T16:01:01.105Z,36.82
2022-08-23T16:03:28.761Z,37.06
2022-08-23T16:05:57.396Z,37.74
2022-08-23T16:08:28.229Z,37.74
2022-08-23T16:10:57.550Z,37.92
2022-08-23T16:13:27.557Z,38.14
2022-08-23T16:15:55.454Z,37.03
2022-08-23T16:18:23.428Z,38.89
2022-08-23T16:20:54.423Z,37.78
2022-08-23T16:23:23.044Z,37.72
2022-08-23T16:25:50.557Z,37.31
2022-08-23T16:28:18.303Z,37.55
2022-08-23T16:30:45.784Z,37.81
2022-08-23T16:33:13.304Z,37.50
2022-08-23T16:35:40.781Z,38.50
2022-08-23T16:38:08.157Z,38.05
2022-08-23T16:40:35.625Z,37.92
2022-08-23T16:43:03.231Z,37.96
2022-08-23T16:45:31.027Z,37.86
2022-08-23T16:47:59.640Z,38.44
2022-08-23T16:50:27.664Z,38.33
2022-08-23T16:52:55.058Z,39.45
2022-08-23T16:55:22.540Z,39.46
2022-08-23T16:57:50.562Z,38.90
2022-08-23T17:00:18.073Z,41.06
2022-08-23T17:02:45.669Z,40.60
2022-08-23T17:05:16.054Z,38.53
2022-08-23T17:07:43.818Z,38.37
2022-08-23T17:10:12.877Z,38.52
2022-08-23T17:12:46.980Z,39.34
2022-08-23T17:15:19.791Z,39.06
2022-08-23T17:17:49.090Z,40.47
2022-08-23T17:20:18.626Z,39.10
2022-08-23T17:22:47.156Z,40.62
2022-08-23T17:25:16.432Z,39.14
2022-08-23T17:27:46.338Z,38.60
2022-08-23T17:30:17.305Z,40.90
2022-08-23T17:32:47.828Z,40.20
2022-08-23T17:35:19.061Z,42.18
2022-08-23T17:37:47.202Z,41.28
2022-08-23T17:40:21.199Z,43.91
2022-08-23T17:42:50.887Z,42.52
2022-08-23T17:45:18.929Z,43.70
2022-08-23T17:47:46.875Z,41.55
2022-08-23T17:50:16.377Z,41.91
2022-08-23T17:52:45.093Z,42.65
2022-08-23T17:55:16.928Z,45.11
2022-08-23T17:57:46.823Z,45.48
2022-08-23T18:00:18.254Z,47.14
2022-08-23T18:02:46.190Z,45.59
2022-08-23T18:05:13.778Z,43.16
2022-08-23T18:07:41.328Z,43.88
2022-08-23T18:10:10.307Z,45.33
2022-08-23T18:12:38.873Z,45.90
2022-08-23T18:15:07.091Z,46.11
2022-08-23T18:17:35.178Z,46.00
2022-08-23T18:20:03.075Z,46.42
2022-08-23T18:22:33.822Z,47.52
2022-08-23T18:25:01.880Z,47.37
2022-08-23T18:27:51.199Z,47.56
2022-08-23T18:30:19.115Z,48.07
2022-08-23T18:32:46.571Z,47.90
2022-08-23T18:35:14.974Z,48.71
2022-08-23T18:37:42.569Z,48.30
2022-08-23T18:40:10.732Z,49.02
2022-08-23T18:42:40.693Z,48.42
2022-08-23T18:45:09.130Z,49.47
2022-08-23T18:47:37.556Z,48.50
2022-08-23T18:50:06.944Z,47.81
2022-08-23T18:52:34.441Z,48.92
2022-08-23T18:55:01.944Z,49.57
2022-08-23T18:57:29.465Z,49.64
2022-08-23T18:59:58.105Z,50.43
2022-08-23T19:02:26.356Z,51.12
2022-08-23T19:04:54.424Z,51.28
2022-08-23T19:07:21.836Z,53.13
2022-08-23T19:09:49.266Z,52.53
2022-08-23T19:12:17.609Z,51.40
2022-08-23T19:14:45.955Z,53.03
2022-08-23T19:17:14.153Z,54.21
2022-08-23T19:19:41.619Z,54.44
2022-08-23T19:22:09.116Z,55.56
2022-08-23T19:24:37.565Z,54.38
2022-08-23T19:27:05.782Z,56.03
2022-08-23T19:29:34.654Z,56.15
2022-08-23T19:32:04.286Z,56.39
2022-08-23T19:34:31.871Z,57.24
2022-08-23T19:37:01.419Z,57.11
2022-08-23T19:39:30.954Z,57.53
2022-08-23T19:41:58.790Z,58.07
2022-08-23T19:44:26.887Z,57.28
2022-08-23T19:46:58.348Z,58.38
2022-08-23T19:49:25.787Z,58.31
2022-08-23T19:51:53.996Z,57.84
2022-08-23T19:54:23.153Z,58.31
2022-08-23T19:56:57.475Z,58.83
2022-08-23T19:59:26.466Z,58.64
2022-08-23T20:01:55.854Z,58.48
2022-08-23T20:04:26.253Z,58.01
2022-08-23T20:06:55.325Z,59.08
2022-08-23T20:09:24.886Z,59.53
2022-08-23T20:11:57.164Z,59.81
2022-08-23T20:14:28.104Z,59.38
2022-08-23T20:16:57.516Z,59.99
2022-08-23T20:19:27.839Z,58.95
2022-08-23T20:22:17.587Z,59.84
2022-08-23T20:24:51.969Z,60.16
2022-08-23T20:27:24.147Z,60.75
2022-08-23T20:30:02.584Z,61.25
2022-08-23T20:32:31.339Z,61.22
2022-08-23T20:35:01.268Z,61.07
2022-08-23T20:37:31.017Z,61.72
2022-08-23T20:39:58.736Z,61.15
2022-08-23T20:42:28.073Z,61.51
2022-08-23T20:44:55.823Z,62.64
2022-08-23T20:47:23.754Z,62.17
2022-08-23T20:49:51.339Z,62.06
2022-08-23T20:52:19.010Z,61.54
2022-08-23T20:54:46.862Z,62.54
2022-08-23T20:57:15.466Z,62.59
2022-08-23T20:59:45.338Z,62.31
2022-08-23T21:02:13.535Z,62.92
2022-08-23T21:04:41.092Z,63.54
2022-08-23T21:07:08.911Z,63.29
2022-08-23T21:09:36.486Z,64.36
2022-08-23T21:12:05.958Z,63.47
2022-08-23T21:14:33.822Z,63.13
2022-08-23T21:17:01.835Z,62.50
2022-08-23T21:19:30.392Z,62.91
2022-08-23T21:21:59.961Z,63.94
2022-08-23T21:24:27.588Z,64.28
2022-08-23T21:26:55.394Z,63.07
2022-08-23T21:29:22.938Z,62.60
2022-08-23T21:31:50.706Z,63.13
2022-08-23T21:34:18.882Z,62.89
2022-08-23T21:36:46.532Z,63.16
2022-08-23T21:39:14.232Z,62.85
2022-08-23T21:41:45.911Z,63.58
2022-08-23T21:44:21.212Z,62.90
2022-08-23T21:46:49.059Z,63.64
2022-08-23T21:49:42.715Z,62.56
2022-08-23T21:52:10.274Z,63.87
2022-08-23T21:54:42.804Z,63.65
2022-08-23T21:57:11.288Z,63.41
2022-08-23T21:59:39.002Z,64.52
2022-08-23T22:02:06.516Z,63.90
2022-08-23T22:04:34.339Z,63.54
2022-08-23T22:07:02.182Z,63.45
2022-08-23T22:09:31.589Z,62.91
2022-08-23T22:12:01.087Z,62.64
2022-08-23T22:14:31.427Z,62.15
2022-08-23T22:17:00.511Z,62.20
2022-08-23T22:19:29.844Z,63.28
2022-08-23T22:21:57.313Z,63.75
2022-08-23T22:24:26.350Z,63.05
2022-08-23T22:26:55.416Z,63.97
2022-08-23T22:29:24.962Z,64.35
2022-08-23T22:31:53.281Z,63.46
2022-08-23T22:34:23.224Z,63.63
2022-08-23T22:36:52.242Z,64.48
2022-08-23T22:39:22.198Z,64.52
2022-08-23T22:41:51.012Z,64.04
2022-08-23T22:44:19.299Z,64.20
2022-08-23T22:46:47.066Z,64.75
2022-08-23T22:49:14.806Z,64.77
2022-08-23T22:51:42.669Z,64.35
2022-08-23T22:54:11.578Z,65.63
2022-08-23T22:56:46.945Z,65.47
2022-08-23T22:59:16.615Z,65.72
2022-08-23T23:01:50.098Z,65.78
2022-08-23T23:04:20.568Z,65.00
2022-08-23T23:06:50.315Z,64.50
2022-08-23T23:09:18.842Z,63.56
2022-08-23T23:11:48.186Z,64.22
2022-08-23T23:14:17.646Z,63.82
2022-08-23T23:16:47.044Z,63.59
2022-08-23T23:19:33.393Z,64.07
2022-08-23T23:22:01.442Z,64.21
2022-08-23T23:24:38.604Z,64.53
2022-08-23T23:27:07.671Z,64.19
2022-08-23T23:29:35.553Z,65.04
2022-08-23T23:32:03.142Z,65.43
2022-08-23T23:34:31.612Z,64.02
2022-08-23T23:36:59.418Z,64.51
2022-08-23T23:39:28.618Z,64.75
2022-08-23T23:41:57.198Z,64.39
2022-08-23T23:44:31.362Z,64.55
2022-08-23T23:47:01.802Z,64.75
2022-08-23T23:49:32.677Z,64.64
2022-08-23T23:52:05.545Z,64.78
2022-08-23T23:54:35.879Z,65.47
2022-08-23T23:57:04.839Z,65.81
2022-08-23T23:59:33.384Z,65.88
